sensor_id;sensor_type;location;lat;lon;timestamp;pressure;altitude;pressure_sealevel;temperature;humidity
58373;BME280;44177;43.356;27.672;2023-12-28T00:00:02;99334.16;;;2.96;90.75
58373;BME280;44177;43.356;27.672;2023-12-28T00:02:28;99342.78;;;2.93;91.29
58373;BME280;44177;43.356;27.672;2023-12-28T00:04:53;99346.81;;;2.95;91.88
58373;BME280;44177;43.356;27.672;2023-12-28T00:07:19;99352.47;;;2.83;91.89
58373;BME280;44177;43.356;27.672;2023-12-28T00:09:45;99350.88;;;2.88;91.61
58373;BME280;44177;43.356;27.672;2023-12-28T00:12:10;99343.03;;;2.76;90.59
58373;BME280;44177;43.356;27.672;2023-12-28T00:14:36;99315.78;;;2.62;89.82
58373;BME280;44177;43.356;27.672;2023-12-28T00:17:01;99339.50;;;2.80;90.46
58373;BME280;44177;43.356;27.672;2023-12-28T00:19:27;99332.53;;;2.79;92.27
58373;BME280;44177;43.356;27.672;2023-12-28T00:21:52;99353.81;;;2.76;92.18
58373;BME280;44177;43.356;27.672;2023-12-28T00:24:20;99365.91;;;2.68;92.41
58373;BME280;44177;43.356;27.672;2023-12-28T00:26:45;99352.94;;;2.55;91.43
58373;BME280;44177;43.356;27.672;2023-12-28T00:29:11;99361.53;;;2.57;91.05
58373;BME280;44177;43.356;27.672;2023-12-28T00:31:37;99354.28;;;2.57;91.48
58373;BME280;44177;43.356;27.672;2023-12-28T00:34:02;99353.50;;;2.62;92.88
58373;BME280;44177;43.356;27.672;2023-12-28T00:36:27;99357.78;;;2.58;93.11
58373;BME280;44177;43.356;27.672;2023-12-28T00:38:53;99350.22;;;2.49;93.42
58373;BME280;44177;43.356;27.672;2023-12-28T00:41:18;99359.94;;;2.56;94.00
58373;BME280;44177;43.356;27.672;2023-12-28T00:43:44;99340.50;;;2.43;93.64
58373;BME280;44177;43.356;27.672;2023-12-28T00:46:10;99353.50;;;2.62;93.55
58373;BME280;44177;43.356;27.672;2023-12-28T00:48:35;99352.41;;;2.63;93.37
58373;BME280;44177;43.356;27.672;2023-12-28T00:51:01;99340.03;;;2.67;92.27
58373;BME280;44177;43.356;27.672;2023-12-28T00:53:26;99358.38;;;2.75;92.13
58373;BME280;44177;43.356;27.672;2023-12-28T00:55:52;99366.41;;;2.65;92.44
58373;BME280;44177;43.356;27.672;2023-12-28T00:58:17;99369.63;;;2.57;93.18
58373;BME280;44177;43.356;27.672;2023-12-28T01:00:43;99369.66;;;2.62;93.97
58373;BME280;44177;43.356;27.672;2023-12-28T01:03:08;99360.78;;;2.66;93.25
58373;BME280;44177;43.356;27.672;2023-12-28T01:05:34;99358.34;;;2.65;91.83
58373;BME280;44177;43.356;27.672;2023-12-28T01:07:59;99367.47;;;2.59;91.38
58373;BME280;44177;43.356;27.672;2023-12-28T01:10:25;99380.41;;;2.51;91.46
58373;BME280;44177;43.356;27.672;2023-12-28T01:12:50;99378.19;;;2.43;91.32
58373;BME280;44177;43.356;27.672;2023-12-28T01:15:16;99362.03;;;2.38;91.88
58373;BME280;44177;43.356;27.672;2023-12-28T01:17:43;99351.81;;;2.45;92.50
58373;BME280;44177;43.356;27.672;2023-12-28T01:20:09;99363.72;;;2.60;91.71
58373;BME280;44177;43.356;27.672;2023-12-28T01:22:34;99359.41;;;2.59;92.99
58373;BME280;44177;43.356;27.672;2023-12-28T01:25:00;99359.38;;;2.48;92.71
58373;BME280;44177;43.356;27.672;2023-12-28T01:27:25;99352.06;;;2.39;91.92
58373;BME280;44177;43.356;27.672;2023-12-28T01:29:50;99341.56;;;2.37;91.93
58373;BME280;44177;43.356;27.672;2023-12-28T01:32:16;99343.19;;;2.38;91.42
58373;BME280;44177;43.356;27.672;2023-12-28T01:34:41;99339.69;;;2.43;91.35
58373;BME280;44177;43.356;27.672;2023-12-28T01:37:07;99345.00;;;2.22;90.79
58373;BME280;44177;43.356;27.672;2023-12-28T01:39:33;99356.25;;;2.14;90.80
58373;BME280;44177;43.356;27.672;2023-12-28T01:41:58;99343.63;;;2.14;91.59
58373;BME280;44177;43.356;27.672;2023-12-28T01:44:24;99331.75;;;2.10;91.34
58373;BME280;44177;43.356;27.672;2023-12-28T01:46:50;99341.41;;;2.01;90.33
58373;BME280;44177;43.356;27.672;2023-12-28T01:49:15;99332.03;;;2.09;90.83
58373;BME280;44177;43.356;27.672;2023-12-28T01:51:42;99346.00;;;2.05;91.62
58373;BME280;44177;43.356;27.672;2023-12-28T01:54:07;99325.78;;;1.98;91.90
58373;BME280;44177;43.356;27.672;2023-12-28T01:56:34;99330.03;;;1.88;91.23
58373;BME280;44177;43.356;27.672;2023-12-28T01:59:00;99336.47;;;1.87;90.64
58373;BME280;44177;43.356;27.672;2023-12-28T02:01:26;99347.00;;;1.89;90.60
58373;BME280;44177;43.356;27.672;2023-12-28T02:03:51;99340.78;;;1.83;91.10
58373;BME280;44177;43.356;27.672;2023-12-28T02:06:18;99354.25;;;1.88;92.07
58373;BME280;44177;43.356;27.672;2023-12-28T02:08:44;99352.91;;;1.86;91.63
58373;BME280;44177;43.356;27.672;2023-12-28T02:11:10;99349.38;;;1.80;90.96
58373;BME280;44177;43.356;27.672;2023-12-28T02:13:36;99355.56;;;1.81;90.25
58373;BME280;44177;43.356;27.672;2023-12-28T02:16:15;99353.88;;;1.69;89.32
58373;BME280;44177;43.356;27.672;2023-12-28T02:18:44;99312.75;;;1.31;88.93
58373;BME280;44177;43.356;27.672;2023-12-28T02:21:12;99371.00;;;1.58;89.38
58373;BME280;44177;43.356;27.672;2023-12-28T02:23:39;99359.88;;;1.44;89.37
58373;BME280;44177;43.356;27.672;2023-12-28T02:26:04;99374.19;;;1.50;88.71
58373;BME280;44177;43.356;27.672;2023-12-28T02:28:30;99355.28;;;1.39;89.28
58373;BME280;44177;43.356;27.672;2023-12-28T02:30:56;99341.06;;;1.44;90.79
58373;BME280;44177;43.356;27.672;2023-12-28T02:33:34;99367.81;;;1.61;91.25
58373;BME280;44177;43.356;27.672;2023-12-28T02:36:04;99360.88;;;1.33;90.56
58373;BME280;44177;43.356;27.672;2023-12-28T02:38:33;99387.50;;;1.34;89.66
58373;BME280;44177;43.356;27.672;2023-12-28T02:41:01;99389.38;;;1.34;90.59
58373;BME280;44177;43.356;27.672;2023-12-28T02:43:28;99378.03;;;1.26;90.41
58373;BME280;44177;43.356;27.672;2023-12-28T02:45:54;99333.22;;;1.05;90.16
58373;BME280;44177;43.356;27.672;2023-12-28T02:48:19;99336.97;;;1.04;90.48
58373;BME280;44177;43.356;27.672;2023-12-28T02:50:45;99374.28;;;1.28;90.91
58373;BME280;44177;43.356;27.672;2023-12-28T02:53:12;99324.47;;;0.87;90.94
58373;BME280;44177;43.356;27.672;2023-12-28T02:55:37;99372.19;;;1.02;91.14
58373;BME280;44177;43.356;27.672;2023-12-28T02:58:03;99372.47;;;1.06;90.93
58373;BME280;44177;43.356;27.672;2023-12-28T03:00:28;99356.75;;;0.92;91.09
58373;BME280;44177;43.356;27.672;2023-12-28T03:02:54;99360.81;;;0.95;91.53
58373;BME280;44177;43.356;27.672;2023-12-28T03:05:19;99323.50;;;0.71;91.52
58373;BME280;44177;43.356;27.672;2023-12-28T03:07:45;99374.31;;;1.00;91.75
58373;BME280;44177;43.356;27.672;2023-12-28T03:10:11;99372.13;;;0.97;91.80
58373;BME280;44177;43.356;27.672;2023-12-28T03:12:37;99369.69;;;0.96;91.17
58373;BME280;44177;43.356;27.672;2023-12-28T03:15:03;99366.50;;;0.99;90.75
58373;BME280;44177;43.356;27.672;2023-12-28T03:17:29;99352.69;;;0.90;90.97
58373;BME280;44177;43.356;27.672;2023-12-28T03:19:58;99366.97;;;0.90;90.88
58373;BME280;44177;43.356;27.672;2023-12-28T03:22:24;99335.03;;;0.67;90.58
58373;BME280;44177;43.356;27.672;2023-12-28T03:24:49;99374.34;;;0.78;89.80
58373;BME280;44177;43.356;27.672;2023-12-28T03:27:15;99376.47;;;0.76;90.33
58373;BME280;44177;43.356;27.672;2023-12-28T03:29:41;99361.47;;;0.80;91.26
58373;BME280;44177;43.356;27.672;2023-12-28T03:32:07;99318.13;;;0.44;92.85
58373;BME280;44177;43.356;27.672;2023-12-28T03:34:33;99369.63;;;0.63;93.80
58373;BME280;44177;43.356;27.672;2023-12-28T03:36:59;99357.81;;;0.64;94.77
58373;BME280;44177;43.356;27.672;2023-12-28T03:39:25;99357.88;;;0.69;97.67
58373;BME280;44177;43.356;27.672;2023-12-28T03:41:51;99365.78;;;0.81;100.00
58373;BME280;44177;43.356;27.672;2023-12-28T03:44:19;99356.44;;;0.89;100.00
58373;BME280;44177;43.356;27.672;2023-12-28T03:46:46;99363.44;;;0.90;100.00
58373;BME280;44177;43.356;27.672;2023-12-28T03:49:12;99353.22;;;0.87;100.00
58373;BME280;44177;43.356;27.672;2023-12-28T03:51:40;99349.44;;;0.88;99.71
58373;BME280;44177;43.356;27.672;2023-12-28T03:54:05;99336.78;;;0.83;97.92
58373;BME280;44177;43.356;27.672;2023-12-28T03:56:30;99339.00;;;0.91;97.06
58373;BME280;44177;43.356;27.672;2023-12-28T03:58:58;99346.06;;;0.98;96.56
58373;BME280;44177;43.356;27.672;2023-12-28T04:01:23;99346.81;;;0.93;95.33
58373;BME280;44177;43.356;27.672;2023-12-28T04:03:49;99353.81;;;0.94;93.69
58373;BME280;44177;43.356;27.672;2023-12-28T04:06:15;99356.22;;;0.90;92.68
58373;BME280;44177;43.356;27.672;2023-12-28T04:08:41;99352.69;;;0.90;92.17
58373;BME280;44177;43.356;27.672;2023-12-28T04:11:07;99342.47;;;0.87;93.30
58373;BME280;44177;43.356;27.672;2023-12-28T04:13:33;99323.50;;;0.71;92.81
58373;BME280;44177;43.356;27.672;2023-12-28T04:15:58;99338.94;;;0.81;94.37
58373;BME280;44177;43.356;27.672;2023-12-28T04:18:24;99337.72;;;0.94;96.56
58373;BME280;44177;43.356;27.672;2023-12-28T04:20:49;99338.59;;;1.05;100.00
58373;BME280;44177;43.356;27.672;2023-12-28T04:23:15;99336.72;;;1.05;100.00
58373;BME280;44177;43.356;27.672;2023-12-28T04:25:41;99292.44;;;0.81;100.00
58373;BME280;44177;43.356;27.672;2023-12-28T04:28:07;99337.78;;;1.04;100.00
58373;BME280;44177;43.356;27.672;2023-12-28T04:30:33;99342.34;;;1.04;100.00
58373;BME280;44177;43.356;27.672;2023-12-28T04:32:58;99326.13;;;0.93;99.87
58373;BME280;44177;43.356;27.672;2023-12-28T04:35:24;99348.28;;;1.06;98.12
58373;BME280;44177;43.356;27.672;2023-12-28T04:37:49;99330.16;;;0.91;95.91
58373;BME280;44177;43.356;27.672;2023-12-28T04:40:14;99339.56;;;0.93;94.85
58373;BME280;44177;43.356;27.672;2023-12-28T04:42:40;99345.50;;;0.96;95.54
58373;BME280;44177;43.356;27.672;2023-12-28T04:45:07;99332.66;;;1.03;100.00
58373;BME280;44177;43.356;27.672;2023-12-28T04:47:32;99329.78;;;1.09;100.00
58373;BME280;44177;43.356;27.672;2023-12-28T04:49:58;99332.75;;;1.13;100.00
58373;BME280;44177;43.356;27.672;2023-12-28T04:52:23;99335.50;;;1.23;100.00
58373;BME280;44177;43.356;27.672;2023-12-28T04:54:49;99324.81;;;1.29;100.00
58373;BME280;44177;43.356;27.672;2023-12-28T04:57:14;99319.16;;;1.25;100.00
58373;BME280;44177;43.356;27.672;2023-12-28T04:59:40;99344.22;;;1.36;100.00
58373;BME280;44177;43.356;27.672;2023-12-28T05:02:07;99300.84;;;1.22;100.00
58373;BME280;44177;43.356;27.672;2023-12-28T05:04:32;99323.59;;;1.47;99.66
58373;BME280;44177;43.356;27.672;2023-12-28T05:06:58;99281.75;;;1.23;99.02
58373;BME280;44177;43.356;27.672;2023-12-28T05:09:23;99321.72;;;1.47;98.64
58373;BME280;44177;43.356;27.672;2023-12-28T05:11:49;99313.63;;;1.47;98.73
58373;BME280;44177;43.356;27.672;2023-12-28T05:14:14;99315.25;;;1.48;98.61
58373;BME280;44177;43.356;27.672;2023-12-28T05:16:40;99330.44;;;1.65;98.82
58373;BME280;44177;43.356;27.672;2023-12-28T05:19:05;99327.78;;;1.70;98.22
58373;BME280;44177;43.356;27.672;2023-12-28T05:21:31;99331.00;;;1.67;97.27
58373;BME280;44177;43.356;27.672;2023-12-28T05:23:56;99293.16;;;1.41;96.79
58373;BME280;44177;43.356;27.672;2023-12-28T05:26:22;99329.09;;;1.67;96.47
58373;BME280;44177;43.356;27.672;2023-12-28T05:28:48;99337.16;;;1.62;95.33
58373;BME280;44177;43.356;27.672;2023-12-28T05:31:14;99331.97;;;1.55;94.85
58373;BME280;44177;43.356;27.672;2023-12-28T05:33:39;99334.91;;;1.49;96.24
58373;BME280;44177;43.356;27.672;2023-12-28T05:36:05;99324.41;;;1.47;98.56
58373;BME280;44177;43.356;27.672;2023-12-28T05:38:31;99320.13;;;1.51;99.97
58373;BME280;44177;43.356;27.672;2023-12-28T05:40:56;99337.16;;;1.67;99.27
58373;BME280;44177;43.356;27.672;2023-12-28T05:43:22;99337.16;;;1.62;97.98
58373;BME280;44177;43.356;27.672;2023-12-28T05:45:47;99337.94;;;1.63;96.26
58373;BME280;44177;43.356;27.672;2023-12-28T05:48:13;99337.16;;;1.67;97.48
58373;BME280;44177;43.356;27.672;2023-12-28T05:50:38;99344.44;;;1.67;97.90
58373;BME280;44177;43.356;27.672;2023-12-28T05:53:05;99347.63;;;1.64;98.63
58373;BME280;44177;43.356;27.672;2023-12-28T05:55:30;99343.38;;;1.68;98.97
58373;BME280;44177;43.356;27.672;2023-12-28T05:57:56;99345.81;;;1.69;98.50
58373;BME280;44177;43.356;27.672;2023-12-28T06:00:21;99352.59;;;1.82;97.54
58373;BME280;44177;43.356;27.672;2023-12-28T06:02:47;99332.13;;;1.76;97.79
58373;BME280;44177;43.356;27.672;2023-12-28T06:05:16;99312.19;;;1.72;97.08
58373;BME280;44177;43.356;27.672;2023-12-28T06:07:42;99336.34;;;2.10;96.67
58373;BME280;44177;43.356;27.672;2023-12-28T06:10:08;99327.19;;;2.16;96.32
58373;BME280;44177;43.356;27.672;2023-12-28T06:12:34;99310.81;;;2.33;95.90
58373;BME280;44177;43.356;27.672;2023-12-28T06:14:59;99339.56;;;3.22;93.71
58373;BME280;44177;43.356;27.672;2023-12-28T06:17:25;99320.28;;;3.95;90.42
58373;BME280;44177;43.356;27.672;2023-12-28T06:19:50;99335.47;;;5.31;84.66
58373;BME280;44177;43.356;27.672;2023-12-28T06:22:16;99318.22;;;7.72;74.82
58373;BME280;44177;43.356;27.672;2023-12-28T06:24:41;99311.88;;;10.23;60.81
58373;BME280;44177;43.356;27.672;2023-12-28T06:27:06;99306.25;;;12.16;50.66
58373;BME280;44177;43.356;27.672;2023-12-28T06:29:32;99302.81;;;13.80;44.55
58373;BME280;44177;43.356;27.672;2023-12-28T06:31:57;99300.66;;;14.88;41.34
58373;BME280;44177;43.356;27.672;2023-12-28T06:34:23;99300.44;;;15.98;38.00
58373;BME280;44177;43.356;27.672;2023-12-28T06:36:48;99288.38;;;16.74;36.61
58373;BME280;44177;43.356;27.672;2023-12-28T06:39:14;99288.59;;;17.90;34.63
58373;BME280;44177;43.356;27.672;2023-12-28T06:41:39;99279.00;;;18.91;32.96
58373;BME280;44177;43.356;27.672;2023-12-28T06:46:40;99290.91;;;20.79;29.54
58373;BME280;44177;43.356;27.672;2023-12-28T06:49:06;99290.28;;;21.22;28.78
58373;BME280;44177;43.356;27.672;2023-12-28T06:51:32;99287.81;;;20.25;29.48
58373;BME280;44177;43.356;27.672;2023-12-28T06:53:58;99254.81;;;20.01;31.13
58373;BME280;44177;43.356;27.672;2023-12-28T06:56:24;99284.88;;;20.03;32.78
58373;BME280;44177;43.356;27.672;2023-12-28T06:58:50;99209.06;;;18.87;33.60
58373;BME280;44177;43.356;27.672;2023-12-28T07:01:15;99287.53;;;19.47;33.63
58373;BME280;44177;43.356;27.672;2023-12-28T07:03:42;99255.28;;;19.66;33.37
58373;BME280;44177;43.356;27.672;2023-12-28T07:06:08;99280.75;;;19.82;33.26
58373;BME280;44177;43.356;27.672;2023-12-28T07:08:33;99286.38;;;19.90;33.02
58373;BME280;44177;43.356;27.672;2023-12-28T07:10:59;99289.19;;;20.52;31.88
58373;BME280;44177;43.356;27.672;2023-12-28T07:13:24;99274.47;;;21.48;30.87
58373;BME280;44177;43.356;27.672;2023-12-28T07:15:50;99276.09;;;21.56;30.71
58373;BME280;44177;43.356;27.672;2023-12-28T07:18:16;99236.81;;;21.46;30.62
58373;BME280;44177;43.356;27.672;2023-12-28T07:20:41;99280.78;;;21.26;31.20
58373;BME280;44177;43.356;27.672;2023-12-28T07:23:07;99262.38;;;19.60;33.42
58373;BME280;44177;43.356;27.672;2023-12-28T07:25:34;99283.38;;;17.62;36.88
58373;BME280;44177;43.356;27.672;2023-12-28T07:27:59;99268.19;;;17.05;38.25
58373;BME280;44177;43.356;27.672;2023-12-28T07:30:25;99292.22;;;17.71;37.44
58373;BME280;44177;43.356;27.672;2023-12-28T07:32:50;99263.78;;;17.67;37.99
58373;BME280;44177;43.356;27.672;2023-12-28T07:35:16;99292.81;;;18.07;37.49
58373;BME280;44177;43.356;27.672;2023-12-28T07:37:41;99304.94;;;16.06;40.03
58373;BME280;44177;43.356;27.672;2023-12-28T07:40:07;99313.75;;;15.07;43.34
58373;BME280;44177;43.356;27.672;2023-12-28T07:42:33;99285.81;;;15.34;43.46
58373;BME280;44177;43.356;27.672;2023-12-28T07:44:58;99306.81;;;14.07;46.92
58373;BME280;44177;43.356;27.672;2023-12-28T07:47:24;99298.78;;;13.65;47.82
58373;BME280;44177;43.356;27.672;2023-12-28T07:49:49;99307.25;;;14.46;46.29
58373;BME280;44177;43.356;27.672;2023-12-28T07:52:14;99298.13;;;14.30;46.57
58373;BME280;44177;43.356;27.672;2023-12-28T07:54:40;99310.75;;;13.48;47.73
58373;BME280;44177;43.356;27.672;2023-12-28T07:57:05;99315.03;;;13.15;48.85
58373;BME280;44177;43.356;27.672;2023-12-28T07:59:31;99327.44;;;12.79;51.12
58373;BME280;44177;43.356;27.672;2023-12-28T08:01:56;99312.06;;;12.87;51.32
58373;BME280;44177;43.356;27.672;2023-12-28T08:04:22;99306.09;;;13.61;49.54
58373;BME280;44177;43.356;27.672;2023-12-28T08:06:48;99302.47;;;13.94;48.50
58373;BME280;44177;43.356;27.672;2023-12-28T08:09:13;99303.78;;;14.74;46.35
58373;BME280;44177;43.356;27.672;2023-12-28T08:11:39;99320.09;;;14.30;48.09
58373;BME280;44177;43.356;27.672;2023-12-28T08:14:05;99324.88;;;14.33;48.05
58373;BME280;44177;43.356;27.672;2023-12-28T08:16:30;99300.41;;;14.03;46.85
58373;BME280;44177;43.356;27.672;2023-12-28T08:18:56;99285.25;;;13.14;49.17
58373;BME280;44177;43.356;27.672;2023-12-28T08:21:21;99316.47;;;13.00;50.10
58373;BME280;44177;43.356;27.672;2023-12-28T08:23:47;99329.69;;;13.19;50.98
58373;BME280;44177;43.356;27.672;2023-12-28T08:26:12;99313.91;;;14.08;48.85
58373;BME280;44177;43.356;27.672;2023-12-28T08:28:38;99304.19;;;15.01;45.52
58373;BME280;44177;43.356;27.672;2023-12-28T08:31:03;99281.59;;;14.79;45.58
58373;BME280;44177;43.356;27.672;2023-12-28T08:33:29;99301.22;;;16.15;43.19
58373;BME280;44177;43.356;27.672;2023-12-28T08:35:55;99290.91;;;17.88;39.67
58373;BME280;44177;43.356;27.672;2023-12-28T08:38:20;99278.16;;;17.80;39.39
58373;BME280;44177;43.356;27.672;2023-12-28T08:40:46;99282.59;;;18.08;38.75
58373;BME280;44177;43.356;27.672;2023-12-28T08:43:11;99261.13;;;19.16;36.67
58373;BME280;44177;43.356;27.672;2023-12-28T08:45:37;99280.63;;;19.68;35.64
58373;BME280;44177;43.356;27.672;2023-12-28T08:48:03;99250.91;;;20.10;35.09
58373;BME280;44177;43.356;27.672;2023-12-28T08:50:28;99265.25;;;20.96;33.42
58373;BME280;44177;43.356;27.672;2023-12-28T08:52:54;99258.81;;;20.74;33.91
58373;BME280;44177;43.356;27.672;2023-12-28T08:55:20;99257.69;;;20.90;32.94
58373;BME280;44177;43.356;27.672;2023-12-28T08:57:46;99247.91;;;21.46;32.02
58373;BME280;44177;43.356;27.672;2023-12-28T09:00:13;99243.09;;;21.07;31.83
58373;BME280;44177;43.356;27.672;2023-12-28T09:02:40;99253.88;;;21.99;31.43
58373;BME280;44177;43.356;27.672;2023-12-28T09:05:06;99200.66;;;22.30;29.60
58373;BME280;44177;43.356;27.672;2023-12-28T09:07:32;99234.78;;;22.30;30.41
58373;BME280;44177;43.356;27.672;2023-12-28T09:09:57;99234.78;;;21.22;32.00
58373;BME280;44177;43.356;27.672;2023-12-28T09:12:23;99234.06;;;22.04;30.72
58373;BME280;44177;43.356;27.672;2023-12-28T09:14:48;99221.34;;;22.11;30.32
58373;BME280;44177;43.356;27.672;2023-12-28T09:17:18;99217.78;;;23.10;29.20
58373;BME280;44177;43.356;27.672;2023-12-28T09:19:43;99226.94;;;21.92;30.91
58373;BME280;44177;43.356;27.672;2023-12-28T09:22:09;99228.03;;;21.08;30.95
58373;BME280;44177;43.356;27.672;2023-12-28T09:24:34;99197.09;;;20.99;31.58
58373;BME280;44177;43.356;27.672;2023-12-28T09:27:00;99219.31;;;21.21;31.34
58373;BME280;44177;43.356;27.672;2023-12-28T09:29:25;99202.31;;;21.48;31.15
58373;BME280;44177;43.356;27.672;2023-12-28T09:31:51;99191.25;;;21.62;29.86
58373;BME280;44177;43.356;27.672;2023-12-28T09:34:16;99180.00;;;22.34;28.98
58373;BME280;44177;43.356;27.672;2023-12-28T09:36:42;99172.16;;;21.39;30.47
58373;BME280;44177;43.356;27.672;2023-12-28T09:39:07;99154.63;;;20.73;31.03
58373;BME280;44177;43.356;27.672;2023-12-28T09:41:36;99165.44;;;21.80;30.54
58373;BME280;44177;43.356;27.672;2023-12-28T09:44:11;99133.69;;;21.84;30.29
58373;BME280;44177;43.356;27.672;2023-12-28T09:46:41;99144.78;;;21.95;29.88
58373;BME280;44177;43.356;27.672;2023-12-28T09:49:07;99157.56;;;22.78;28.42
58373;BME280;44177;43.356;27.672;2023-12-28T09:51:33;99164.50;;;23.18;27.67
58373;BME280;44177;43.356;27.672;2023-12-28T09:53:58;99161.91;;;23.88;26.88
58373;BME280;44177;43.356;27.672;2023-12-28T09:56:24;99160.75;;;24.23;25.93
58373;BME280;44177;43.356;27.672;2023-12-28T09:58:53;99185.59;;;24.10;25.60
58373;BME280;44177;43.356;27.672;2023-12-28T10:01:19;99163.16;;;23.38;27.23
58373;BME280;44177;43.356;27.672;2023-12-28T10:03:45;99142.16;;;23.29;26.97
58373;BME280;44177;43.356;27.672;2023-12-28T10:06:10;99137.13;;;23.59;26.39
58373;BME280;44177;43.356;27.672;2023-12-28T10:08:36;99158.84;;;23.29;26.04
58373;BME280;44177;43.356;27.672;2023-12-28T10:11:02;99119.88;;;23.71;26.64
58373;BME280;44177;43.356;27.672;2023-12-28T10:13:28;99142.84;;;24.24;25.89
58373;BME280;44177;43.356;27.672;2023-12-28T10:15:59;99155.34;;;24.43;25.54
58373;BME280;44177;43.356;27.672;2023-12-28T10:18:24;99132.63;;;24.10;25.67
58373;BME280;44177;43.356;27.672;2023-12-28T10:20:50;99134.47;;;23.86;26.53
58373;BME280;44177;43.356;27.672;2023-12-28T10:23:18;99125.28;;;23.47;26.65
58373;BME280;44177;43.356;27.672;2023-12-28T10:25:43;99140.13;;;23.79;26.28
58373;BME280;44177;43.356;27.672;2023-12-28T10:28:10;99113.13;;;23.72;26.44
58373;BME280;44177;43.356;27.672;2023-12-28T10:30:38;99115.00;;;24.21;26.19
58373;BME280;44177;43.356;27.672;2023-12-28T10:33:07;99113.28;;;23.58;26.19
58373;BME280;44177;43.356;27.672;2023-12-28T10:35:33;99124.81;;;23.03;26.81
58373;BME280;44177;43.356;27.672;2023-12-28T10:38:00;99112.94;;;22.99;27.31
58373;BME280;44177;43.356;27.672;2023-12-28T10:40:26;99114.91;;;22.24;28.25
58373;BME280;44177;43.356;27.672;2023-12-28T10:42:58;99118.72;;;22.63;28.09
58373;BME280;44177;43.356;27.672;2023-12-28T10:45:28;99105.50;;;21.86;28.18
58373;BME280;44177;43.356;27.672;2023-12-28T10:48:07;99126.09;;;22.03;28.10
58373;BME280;44177;43.356;27.672;2023-12-28T10:50:41;99071.50;;;20.95;29.72
58373;BME280;44177;43.356;27.672;2023-12-28T10:53:15;99098.44;;;21.20;30.18
58373;BME280;44177;43.356;27.672;2023-12-28T10:58:21;99035.66;;;20.10;30.86
58373;BME280;44177;43.356;27.672;2023-12-28T11:00:57;99096.34;;;20.51;31.11
58373;BME280;44177;43.356;27.672;2023-12-28T11:03:28;99057.78;;;20.03;31.35
58373;BME280;44177;43.356;27.672;2023-12-28T11:05:56;99093.47;;;20.19;31.02
58373;BME280;44177;43.356;27.672;2023-12-28T11:08:23;99093.19;;;19.68;31.37
58373;BME280;44177;43.356;27.672;2023-12-28T11:10:50;99082.25;;;19.31;32.53
58373;BME280;44177;43.356;27.672;2023-12-28T11:13:20;99086.66;;;19.35;32.40
58373;BME280;44177;43.356;27.672;2023-12-28T11:15:46;99090.59;;;19.34;32.43
58373;BME280;44177;43.356;27.672;2023-12-28T11:18:14;99074.34;;;18.84;32.95
58373;BME280;44177;43.356;27.672;2023-12-28T11:20:42;98990.69;;;18.05;33.99
58373;BME280;44177;43.356;27.672;2023-12-28T11:23:09;99086.19;;;18.43;34.37
58373;BME280;44177;43.356;27.672;2023-12-28T11:25:35;99091.69;;;18.40;34.47
58373;BME280;44177;43.356;27.672;2023-12-28T11:28:09;99038.69;;;17.66;34.98
58373;BME280;44177;43.356;27.672;2023-12-28T11:30:35;99066.19;;;17.89;34.76
58373;BME280;44177;43.356;27.672;2023-12-28T11:33:02;99071.84;;;17.70;35.27
58373;BME280;44177;43.356;27.672;2023-12-28T11:35:35;99078.63;;;17.76;35.28
58373;BME280;44177;43.356;27.672;2023-12-28T11:38:03;99078.63;;;17.76;35.78
58373;BME280;44177;43.356;27.672;2023-12-28T11:40:32;99048.03;;;17.58;35.93
58373;BME280;44177;43.356;27.672;2023-12-28T11:43:14;99065.75;;;17.57;35.49
58373;BME280;44177;43.356;27.672;2023-12-28T11:45:47;99049.75;;;17.39;35.56
58373;BME280;44177;43.356;27.672;2023-12-28T11:48:22;98975.75;;;16.91;36.34
58373;BME280;44177;43.356;27.672;2023-12-28T11:50:48;99007.63;;;17.15;36.03
58373;BME280;44177;43.356;27.672;2023-12-28T11:53:15;99044.72;;;17.45;35.86
58373;BME280;44177;43.356;27.672;2023-12-28T11:55:41;99039.34;;;17.29;36.88
58373;BME280;44177;43.356;27.672;2023-12-28T11:58:07;99029.50;;;17.58;36.53
58373;BME280;44177;43.356;27.672;2023-12-28T12:00:32;99014.69;;;17.40;36.46
58373;BME280;44177;43.356;27.672;2023-12-28T12:02:58;99022.00;;;17.28;36.14
58373;BME280;44177;43.356;27.672;2023-12-28T12:05:23;99025.72;;;17.13;36.62
58373;BME280;44177;43.356;27.672;2023-12-28T12:07:49;99023.59;;;17.29;36.54
58373;BME280;44177;43.356;27.672;2023-12-28T12:10:15;99014.03;;;17.19;36.34
58373;BME280;44177;43.356;27.672;2023-12-28T12:12:41;99002.72;;;17.28;35.96
58373;BME280;44177;43.356;27.672;2023-12-28T12:15:08;99008.66;;;17.30;36.55
58373;BME280;44177;43.356;27.672;2023-12-28T12:17:34;98995.94;;;17.22;36.65
58373;BME280;44177;43.356;27.672;2023-12-28T12:19:59;99000.09;;;17.39;36.50
58373;BME280;44177;43.356;27.672;2023-12-28T12:22:27;98993.13;;;17.49;35.90
58373;BME280;44177;43.356;27.672;2023-12-28T12:24:53;98985.53;;;17.39;36.10
58373;BME280;44177;43.356;27.672;2023-12-28T12:27:20;98988.22;;;17.65;36.24
58373;BME280;44177;43.356;27.672;2023-12-28T12:29:46;98985.94;;;17.41;36.29
58373;BME280;44177;43.356;27.672;2023-12-28T12:32:12;98952.38;;;17.35;36.81
58373;BME280;44177;43.356;27.672;2023-12-28T12:34:38;98984.38;;;17.13;36.56
58373;BME280;44177;43.356;27.672;2023-12-28T12:37:04;98976.31;;;17.00;36.74
58373;BME280;44177;43.356;27.672;2023-12-28T12:39:30;98969.03;;;17.15;36.70
58373;BME280;44177;43.356;27.672;2023-12-28T12:41:56;98957.72;;;17.51;36.15
58373;BME280;44177;43.356;27.672;2023-12-28T12:44:22;98970.38;;;17.56;36.21
58373;BME280;44177;43.356;27.672;2023-12-28T12:46:48;98958.72;;;17.70;36.01
58373;BME280;44177;43.356;27.672;2023-12-28T12:49:15;98909.53;;;17.41;36.24
58373;BME280;44177;43.356;27.672;2023-12-28T12:51:41;98931.31;;;17.19;36.33
58373;BME280;44177;43.356;27.672;2023-12-28T12:54:07;98948.69;;;17.24;37.13